Time;durP1;ratioP1;P1;durP2;ratioP2;P2;SDS_P1;SDS_P2;PMS_P1;PMS_P2;Temp;Humidity;BMP_temperature;BMP_pressure;BME280_temperature;BME280_humidity;BME280_pressure;Samples;Min_cycle;Max_cycle;Signal;HPM_P1;HPM_P2
2023/03/01 00:01:04;;;;;;;2.20;2.10;;;16.60;58.30;;;;;;5022403;28;43990;-75
2023/03/01 00:03:33;;;;;;;2.17;2.17;;;16.60;58.40;;;;;;5026635;28;43381;-76
2023/03/01 00:06:01;;;;;;;2.20;2.20;;;16.60;58.30;;;;;;5021141;28;43428;-74
2023/03/01 00:08:29;;;;;;;2.40;2.40;;;16.60;58.40;;;;;;5023080;28;44278;-77
2023/03/01 00:11:05;;;;;;;2.20;2.20;;;16.60;58.60;;;;;;5014133;28;43558;-76
2023/03/01 00:13:33;;;;;;;2.10;2.10;;;16.60;58.60;;;;;;5023273;28;43442;-76
2023/03/01 00:16:04;;;;;;;2.40;2.30;;;16.70;58.30;;;;;;5022239;28;43997;-77
2023/03/01 00:18:32;;;;;;;2.30;2.30;;;16.80;58.00;;;;;;5018780;28;43555;-75
2023/03/01 00:21:00;;;;;;;2.00;2.00;;;16.80;58.00;;;;;;5023504;28;43482;-75
2023/03/01 00:23:28;;;;;;;2.30;2.30;;;16.70;57.90;;;;;;5025097;28;43386;-76
2023/03/01 00:25:56;;;;;;;2.23;2.23;;;16.70;58.10;;;;;;5024834;28;43510;-75
2023/03/01 00:28:24;;;;;;;2.23;2.23;;;16.70;58.20;;;;;;5020747;28;45629;-76
2023/03/01 00:30:52;;;;;;;2.10;2.10;;;16.70;58.10;;;;;;5024434;28;44505;-76
2023/03/01 00:33:22;;;;;;;2.10;2.10;;;16.70;58.20;;;;;;5023760;28;43323;-74
2023/03/01 00:35:50;;;;;;;2.20;2.20;;;16.60;58.10;;;;;;5024202;28;43502;-75
2023/03/01 00:38:18;;;;;;;2.10;2.10;;;16.60;58.40;;;;;;5023333;28;45222;-77
2023/03/01 00:40:46;;;;;;;2.20;2.10;;;16.60;58.30;;;;;;5024647;28;43782;-75
2023/03/01 00:43:16;;;;;;;2.00;2.00;;;16.60;58.50;;;;;;5023567;28;44103;-76
2023/03/01 00:45:44;;;;;;;2.20;2.20;;;16.60;58.30;;;;;;5026056;28;43477;-75
2023/03/01 00:48:12;;;;;;;2.13;2.03;;;16.60;58.30;;;;;;5020786;28;43618;-76
2023/03/01 00:50:41;;;;;;;2.20;2.20;;;16.60;58.30;;;;;;5022186;28;43460;-76
2023/03/01 00:53:10;;;;;;;2.10;2.10;;;16.60;58.30;;;;;;5023926;28;43415;-76
2023/03/01 00:55:38;;;;;;;2.10;2.10;;;16.60;58.30;;;;;;5018618;28;43495;-78
2023/03/01 00:58:06;;;;;;;2.10;2.10;;;16.50;58.30;;;;;;5021734;28;46252;-76
2023/03/01 01:00:34;;;;;;;2.00;2.00;;;16.60;58.60;;;;;;5025764;28;43349;-75
2023/03/01 01:03:02;;;;;;;2.30;2.20;;;16.60;58.50;;;;;;5021858;28;43427;-75
2023/03/01 01:05:31;;;;;;;2.50;2.40;;;16.70;58.20;;;;;;5018817;28;43739;-75
2023/03/01 01:08:00;;;;;;;2.60;2.50;;;16.80;57.90;;;;;;5021487;28;46224;-76
2023/03/01 01:10:28;;;;;;;2.03;2.03;;;16.80;57.80;;;;;;5021770;28;43401;-76
2023/03/01 01:12:56;;;;;;;2.20;2.10;;;16.80;57.90;;;;;;5024911;28;43427;-76
2023/03/01 01:15:24;;;;;;;2.10;2.10;;;16.70;58.00;;;;;;5018131;28;43424;-75
2023/03/01 01:17:52;;;;;;;2.20;2.20;;;16.70;58.00;;;;;;5019949;28;45735;-76
2023/03/01 01:20:20;;;;;;;2.20;2.20;;;16.70;58.00;;;;;;5018892;28;44150;-74
2023/03/01 01:22:48;;;;;;;2.10;2.10;;;16.70;58.00;;;;;;5024792;28;43443;-75
2023/03/01 01:25:18;;;;;;;2.30;2.30;;;16.70;58.10;;;;;;5022375;28;43655;-76
2023/03/01 01:27:46;;;;;;;2.20;2.20;;;16.60;58.10;;;;;;5019866;28;43896;-76
2023/03/01 01:30:14;;;;;;;2.00;2.00;;;16.60;58.20;;;;;;5023707;28;43904;-74
2023/03/01 01:32:42;;;;;;;2.20;2.20;;;16.60;58.30;;;;;;5019940;28;43957;-76
2023/03/01 01:35:10;;;;;;;2.10;2.10;;;16.60;58.30;;;;;;5020811;28;43464;-76
2023/03/01 01:37:38;;;;;;;2.27;2.27;;;16.60;58.30;;;;;;5019238;28;44057;-76
2023/03/01 01:40:07;;;;;;;2.27;2.27;;;16.60;58.30;;;;;;5025801;28;43389;-75
2023/03/01 01:42:37;;;;;;;2.23;2.23;;;16.60;58.30;;;;;;5015769;28;43808;-75
2023/03/01 01:45:27;;;;;;;2.30;2.30;;;16.60;58.30;;;;;;5019763;28;43508;-76
2023/03/01 01:47:56;;;;;;;2.20;2.20;;;16.50;58.40;;;;;;5016750;28;45736;-74
2023/03/01 01:50:24;;;;;;;2.63;2.53;;;16.60;58.50;;;;;;5017297;28;43440;-76
2023/03/01 01:52:52;;;;;;;2.00;2.00;;;16.70;58.40;;;;;;5019994;28;43416;-76
2023/03/01 01:55:21;;;;;;;2.10;2.10;;;16.70;57.90;;;;;;5020102;28;43578;-76
2023/03/01 01:57:52;;;;;;;2.07;2.07;;;16.80;57.80;;;;;;5010734;28;44038;-76
2023/03/01 02:00:22;;;;;;;2.27;2.27;;;16.70;57.80;;;;;;5018904;28;43970;-75
2023/03/01 02:02:52;;;;;;;2.30;2.30;;;16.70;57.90;;;;;;5019007;28;43378;-74
2023/03/01 02:05:25;;;;;;;2.20;2.20;;;16.70;58.20;;;;;;5021129;28;43448;-74
2023/03/01 02:07:53;;;;;;;2.00;2.00;;;16.70;58.00;;;;;;5017194;28;45846;-75
2023/03/01 02:10:22;;;;;;;2.10;2.10;;;16.70;58.00;;;;;;5019117;28;44484;-76
2023/03/01 02:12:52;;;;;;;2.27;2.27;;;16.60;58.00;;;;;;5019727;28;43444;-76
2023/03/01 02:15:20;;;;;;;2.10;2.10;;;16.60;58.10;;;;;;5024613;28;43428;-76
2023/03/01 02:17:48;;;;;;;2.00;2.00;;;16.60;58.10;;;;;;5023842;28;44690;-75
2023/03/01 02:20:17;;;;;;;2.43;2.43;;;16.60;58.20;;;;;;5025038;28;44832;-76
2023/03/01 02:22:46;;;;;;;2.10;2.10;;;16.60;58.40;;;;;;5026671;28;43450;-76
2023/03/01 02:25:32;;;;;;;2.30;2.30;;;16.60;58.20;;;;;;5027122;28;43470;-77
2023/03/01 02:28:04;;;;;;;2.47;2.47;;;16.60;58.20;;;;;;5016731;28;44060;-76
2023/03/01 02:30:33;;;;;;;2.40;2.40;;;16.60;58.20;;;;;;5022350;28;44965;-75
2023/03/01 02:33:02;;;;;;;2.27;2.27;;;16.60;58.20;;;;;;5022529;28;43601;-74
2023/03/01 02:35:31;;;;;;;2.27;2.27;;;16.50;58.20;;;;;;5022299;28;43527;-77
2023/03/01 02:38:00;;;;;;;2.43;2.43;;;16.50;58.40;;;;;;5024371;28;45763;-75
2023/03/01 02:40:29;;;;;;;2.30;2.30;;;16.60;58.50;;;;;;5023275;28;43526;-74
2023/03/01 02:42:58;;;;;;;2.33;2.33;;;16.70;58.40;;;;;;5022164;28;43920;-76
2023/03/01 02:45:26;;;;;;;2.37;2.37;;;16.70;57.90;;;;;;5025392;28;43550;-75
2023/03/01 02:47:56;;;;;;;2.23;2.23;;;16.70;57.70;;;;;;5022494;28;45514;-76
2023/03/01 02:50:39;;;;;;;2.00;2.00;;;16.70;57.80;;;;;;5024282;28;43489;-75
2023/03/01 02:53:09;;;;;;;2.13;2.13;;;16.70;57.80;;;;;;5022214;28;43462;-74
2023/03/01 02:55:38;;;;;;;2.10;2.10;;;16.70;58.10;;;;;;5026308;28;43456;-77
2023/03/01 02:58:07;;;;;;;2.30;2.30;;;16.60;57.90;;;;;;5023511;28;45491;-77
2023/03/01 03:00:39;;;;;;;2.30;2.30;;;16.60;58.60;;;;;;5025611;28;45588;-76
2023/03/01 03:03:09;;;;;;;2.10;2.10;;;16.60;58.00;;;;;;5025105;28;43488;-76
2023/03/01 03:05:38;;;;;;;2.23;2.23;;;16.60;58.70;;;;;;5024558;28;43478;-76
2023/03/01 03:08:07;;;;;;;2.50;2.50;;;16.60;58.10;;;;;;5016418;28;45325;-75
2023/03/01 03:10:39;;;;;;;2.33;2.33;;;16.60;58.20;;;;;;5022165;28;44295;-74
2023/03/01 03:13:08;;;;;;;2.40;2.40;;;16.60;58.20;;;;;;5014746;28;43439;-75
2023/03/01 03:15:38;;;;;;;2.20;2.20;;;16.60;58.20;;;;;;5022589;28;43453;-74
2023/03/01 03:18:11;;;;;;;2.40;2.40;;;16.60;58.20;;;;;;5016402;28;44329;-76
2023/03/01 03:20:39;;;;;;;2.40;2.40;;;16.50;58.10;;;;;;5021886;28;44762;-75
2023/03/01 03:23:07;;;;;;;2.20;2.20;;;16.50;58.10;;;;;;5023710;28;43432;-77
2023/03/01 03:25:37;;;;;;;2.73;2.60;;;16.50;58.10;;;;;;5021306;28;43975;-75
2023/03/01 03:28:09;;;;;;;2.37;2.27;;;16.50;58.30;;;;;;5022863;28;45877;-75
2023/03/01 03:30:39;;;;;;;2.30;2.30;;;16.50;58.40;;;;;;5015211;28;44878;-75
2023/03/01 03:33:07;;;;;;;2.17;2.17;;;16.60;58.20;;;;;;5026996;28;43428;-75
2023/03/01 03:35:40;;;;;;;2.40;2.40;;;16.70;57.90;;;;;;5023288;28;43489;-76
2023/03/01 03:38:15;;;;;;;2.70;2.70;;;16.70;57.60;;;;;;5017624;28;43608;-76
2023/03/01 03:40:44;;;;;;;2.50;2.50;;;16.70;57.70;;;;;;5021775;28;44898;-76
2023/03/01 03:43:14;;;;;;;2.33;2.23;;;16.70;57.80;;;;;;5023859;28;43457;-77
2023/03/01 03:45:42;;;;;;;2.50;2.50;;;16.70;58.00;;;;;;5024698;28;43507;-77
2023/03/01 03:48:10;;;;;;;2.60;2.50;;;16.60;57.80;;;;;;5018113;28;44670;-76
2023/03/01 03:50:40;;;;;;;2.60;2.50;;;16.60;57.80;;;;;;5025632;28;45022;-75
2023/03/01 03:53:09;;;;;;;2.47;2.47;;;16.60;57.90;;;;;;5021530;28;43456;-76
2023/03/01 03:55:38;;;;;;;2.83;2.73;;;16.60;58.00;;;;;;5025707;28;43408;-75
2023/03/01 03:58:07;;;;;;;2.23;2.23;;;16.60;58.00;;;;;;5024765;28;43687;-75
2023/03/01 04:00:36;;;;;;;2.60;2.60;;;16.60;58.20;;;;;;5024795;28;43490;-75
2023/03/01 04:03:04;;;;;;;2.13;2.13;;;16.50;58.10;;;;;;5023126;28;43871;-75
2023/03/01 04:05:33;;;;;;;2.50;2.50;;;16.50;58.10;;;;;;5018792;28;43482;-76
2023/03/01 04:08:02;;;;;;;2.60;2.60;;;16.50;58.00;;;;;;5020475;28;43754;-75
2023/03/01 04:10:31;;;;;;;2.57;2.57;;;16.50;58.10;;;;;;5020785;28;45897;-75
2023/03/01 04:12:59;;;;;;;2.40;2.40;;;16.50;58.10;;;;;;5023960;28;43459;-75
2023/03/01 04:15:28;;;;;;;2.33;2.33;;;16.50;58.10;;;;;;5022890;28;43515;-75
2023/03/01 04:17:56;;;;;;;2.60;2.60;;;16.50;58.40;;;;;;5016399;28;43849;-75
2023/03/01 04:20:25;;;;;;;2.60;2.60;;;16.50;58.40;;;;;;5021119;28;44014;-75
2023/03/01 04:22:53;;;;;;;2.70;2.70;;;16.60;58.10;;;;;;5019057;28;43380;-75
2023/03/01 04:25:23;;;;;;;2.90;2.80;;;16.70;57.80;;;;;;5020018;28;43874;-75
2023/03/01 04:27:52;;;;;;;2.40;2.40;;;16.70;57.80;;;;;;5024467;28;44367;-74
2023/03/01 04:30:25;;;;;;;2.77;2.67;;;16.70;57.90;;;;;;5020191;28;45119;-76
2023/03/01 04:32:53;;;;;;;2.43;2.43;;;16.60;57.90;;;;;;5014859;28;43975;-76
2023/03/01 04:35:21;;;;;;;2.50;2.50;;;16.60;58.10;;;;;;5024138;28;43672;-76
2023/03/01 04:37:50;;;;;;;2.67;2.57;;;16.60;58.00;;;;;;5021599;28;43983;-76
2023/03/01 04:40:19;;;;;;;2.60;2.60;;;16.60;58.10;;;;;;5018301;28;44322;-76
2023/03/01 04:42:48;;;;;;;2.80;2.80;;;16.60;58.10;;;;;;5024302;28;43907;-74
2023/03/01 04:45:16;;;;;;;2.70;2.60;;;16.50;58.00;;;;;;5017042;28;43409;-75
2023/03/01 04:47:45;;;;;;;2.90;2.80;;;16.50;58.20;;;;;;5017351;28;44387;-76
2023/03/01 04:50:14;;;;;;;2.80;2.80;;;16.50;58.20;;;;;;5023820;28;44405;-75
2023/03/01 04:52:43;;;;;;;2.40;2.40;;;16.50;58.10;;;;;;5023208;28;43377;-76
2023/03/01 04:55:11;;;;;;;2.60;2.60;;;16.50;58.10;;;;;;5020428;28;43500;-75
2023/03/01 04:57:40;;;;;;;2.70;2.60;;;16.50;58.10;;;;;;5022957;28;43624;-77
2023/03/01 05:00:20;;;;;;;2.70;2.60;;;16.60;58.80;;;;;;5019572;28;43591;-74
2023/03/01 05:02:52;;;;;;;2.73;2.63;;;16.60;58.20;;;;;;5021537;28;43403;-74
2023/03/01 05:05:25;;;;;;;2.97;2.87;;;16.60;58.20;;;;;;5021619;28;43958;-75
2023/03/01 05:07:54;;;;;;;2.73;2.73;;;16.60;58.30;;;;;;5024242;28;43912;-75
2023/03/01 05:10:23;;;;;;;2.77;2.77;;;16.60;58.00;;;;;;5024163;28;44654;-75
2023/03/01 05:12:51;;;;;;;2.50;2.50;;;16.70;57.60;;;;;;5020978;28;43474;-75
2023/03/01 05:15:25;;;;;;;2.70;2.70;;;16.70;57.50;;;;;;5021402;28;43986;-78
2023/03/01 05:17:54;;;;;;;2.70;2.60;;;16.70;57.60;;;;;;5017756;28;43720;-75
2023/03/01 05:20:23;;;;;;;2.80;2.80;;;16.70;57.60;;;;;;5022745;28;43406;-74
2023/03/01 05:22:51;;;;;;;2.77;2.77;;;16.70;57.80;;;;;;5017060;28;43499;-74
2023/03/01 05:25:21;;;;;;;2.80;2.70;;;16.70;57.60;;;;;;5024572;28;43647;-76
2023/03/01 05:27:49;;;;;;;2.60;2.53;;;16.70;57.70;;;;;;5021128;28;44039;-75
2023/03/01 05:30:18;;;;;;;2.93;2.93;;;16.70;57.80;;;;;;5015545;28;43380;-76
2023/03/01 05:32:48;;;;;;;2.60;2.60;;;16.70;57.90;;;;;;5017777;28;43374;-74
2023/03/01 05:35:17;;;;;;;2.80;2.80;;;16.60;57.90;;;;;;5023387;28;43509;-76
2023/03/01 05:37:45;;;;;;;2.60;2.60;;;16.60;57.90;;;;;;5022381;28;45950;-76
2023/03/01 05:40:16;;;;;;;2.90;2.90;;;16.60;58.10;;;;;;5021922;28;43486;-76
2023/03/01 05:42:44;;;;;;;3.07;2.97;;;16.70;58.00;;;;;;5017249;28;43384;-75
2023/03/01 05:45:13;;;;;;;2.93;2.83;;;16.70;57.50;;;;;;5019677;28;43481;-76
2023/03/01 05:47:43;;;;;;;2.97;2.93;;;16.70;57.60;;;;;;4996567;28;44119;-75
2023/03/01 05:50:14;;;;;;;2.73;2.63;;;16.70;57.70;;;;;;5022891;28;43442;-75
2023/03/01 05:52:42;;;;;;;2.60;2.60;;;16.60;57.70;;;;;;5020984;28;43474;-75
2023/03/01 05:55:10;;;;;;;2.67;2.60;;;16.60;57.90;;;;;;5026974;28;43480;-76
2023/03/01 05:57:39;;;;;;;2.90;2.80;;;16.60;57.80;;;;;;5025570;28;43970;-77
2023/03/01 06:00:08;;;;;;;2.80;2.80;;;16.60;57.90;;;;;;5022109;28;43912;-75
2023/03/01 06:02:39;;;;;;;2.70;2.70;;;16.60;57.90;;;;;;5024077;28;44028;-75
2023/03/01 06:05:09;;;;;;;2.83;2.83;;;16.60;57.90;;;;;;5025696;28;43523;-74
2023/03/01 06:07:38;;;;;;;3.00;2.90;;;16.50;57.90;;;;;;5022214;28;45264;-75
2023/03/01 06:10:07;;;;;;;3.30;3.20;;;16.50;58.00;;;;;;5017455;28;44355;-75
2023/03/01 06:12:36;;;;;;;3.33;3.23;;;16.50;58.20;;;;;;5026393;28;44021;-75
2023/03/01 06:15:04;;;;;;;3.17;3.07;;;16.50;58.30;;;;;;5024698;28;43541;-74
2023/03/01 06:17:37;;;;;;;3.20;3.10;;;16.60;58.20;;;;;;5020030;28;44047;-75
2023/03/01 06:20:07;;;;;;;3.40;3.30;;;16.70;57.70;;;;;;5022191;28;43432;-74
2023/03/01 06:22:35;;;;;;;3.00;2.90;;;16.70;57.50;;;;;;5026867;28;43525;-75
2023/03/01 06:25:05;;;;;;;3.10;3.00;;;16.70;57.60;;;;;;5022892;28;44781;-75
2023/03/01 06:27:33;;;;;;;3.03;2.93;;;16.70;57.80;;;;;;5022411;28;43604;-76
2023/03/01 06:30:01;;;;;;;2.90;2.90;;;16.60;57.90;;;;;;5024798;28;43395;-74
2023/03/01 06:32:30;;;;;;;2.97;2.87;;;16.60;57.70;;;;;;5020477;28;43500;-74
2023/03/01 06:34:58;;;;;;;2.97;2.90;;;16.60;57.80;;;;;;5019778;28;44032;-74
2023/03/01 06:37:26;;;;;;;3.20;3.10;;;16.60;57.90;;;;;;5020271;28;43989;-75
2023/03/01 06:39:54;;;;;;;3.37;3.27;;;16.60;57.90;;;;;;5020766;28;43568;-74
2023/03/01 06:42:24;;;;;;;3.30;3.20;;;16.60;57.90;;;;;;5020527;28;43507;-77
2023/03/01 06:44:52;;;;;;;3.20;3.10;;;16.60;58.00;;;;;;5020385;28;43434;-73
2023/03/01 06:47:20;;;;;;;3.27;3.17;;;16.60;57.80;;;;;;5023723;28;45705;-75
2023/03/01 06:49:48;;;;;;;3.13;3.03;;;16.60;57.80;;;;;;5025249;28;44106;-75
2023/03/01 06:52:16;;;;;;;2.93;2.93;;;16.60;57.90;;;;;;5022198;28;43373;-75
2023/03/01 06:54:44;;;;;;;3.27;3.17;;;16.60;57.80;;;;;;5023431;28;44168;-75
2023/03/01 06:57:12;;;;;;;3.37;3.27;;;16.60;57.80;;;;;;5021662;28;44045;-77
2023/03/01 06:59:41;;;;;;;3.73;3.63;;;16.60;57.80;;;;;;5024639;28;44181;-75
2023/03/01 07:02:11;;;;;;;3.57;3.47;;;16.60;57.90;;;;;;5012862;28;44096;-77
2023/03/01 07:04:39;;;;;;;2.90;2.87;;;16.60;57.90;;;;;;5024670;28;43560;-75
2023/03/01 07:07:07;;;;;;;2.90;2.90;;;16.70;57.80;;;;;;5025110;28;44996;-76
2023/03/01 07:09:35;;;;;;;2.97;2.93;;;16.80;57.40;;;;;;5021520;28;43473;-76
2023/03/01 07:12:03;;;;;;;3.10;3.00;;;16.80;57.20;;;;;;5022441;28;44048;-75
2023/03/01 07:14:31;;;;;;;3.47;3.37;;;16.80;57.30;;;;;;5023216;28;43647;-75
2023/03/01 07:17:01;;;;;;;3.40;3.30;;;16.80;57.40;;;;;;5021232;28;44333;-75
2023/03/01 07:19:29;;;;;;;3.17;3.07;;;16.70;57.60;;;;;;5019007;28;44840;-75
2023/03/01 07:21:57;;;;;;;3.10;3.07;;;16.70;57.40;;;;;;5021891;28;44053;-75
2023/03/01 07:24:25;;;;;;;3.50;3.40;;;16.70;57.50;;;;;;5023290;28;43533;-75
2023/03/01 07:26:54;;;;;;;3.50;3.40;;;16.70;57.50;;;;;;5018797;28;43917;-76
2023/03/01 07:29:22;;;;;;;3.17;3.10;;;16.70;57.60;;;;;;5021003;28;43443;-75
2023/03/01 07:31:50;;;;;;;3.60;3.50;;;16.60;57.60;;;;;;5022914;28;43548;-75
2023/03/01 07:34:19;;;;;;;3.20;3.10;;;16.60;57.90;;;;;;5023610;28;44107;-75
2023/03/01 07:36:47;;;;;;;3.03;3.00;;;16.60;57.80;;;;;;5022639;28;45726;-77
2023/03/01 07:39:15;;;;;;;3.60;3.50;;;16.60;57.90;;;;;;5019559;28;45174;-76
2023/03/01 07:41:46;;;;;;;3.47;3.37;;;16.60;58.50;;;;;;5021215;28;43392;-76
2023/03/01 07:44:15;;;;;;;3.20;3.10;;;16.50;57.90;;;;;;5021619;28;43601;-75
2023/03/01 07:46:43;;;;;;;3.30;3.20;;;16.50;57.90;;;;;;5023016;28;46080;-75
2023/03/01 07:49:11;;;;;;;3.40;3.30;;;16.50;58.00;;;;;;5024537;28;43432;-76
2023/03/01 07:51:41;;;;;;;3.27;3.17;;;16.50;58.10;;;;;;5021461;28;43408;-75
2023/03/01 07:54:09;;;;;;;3.40;3.30;;;16.50;58.10;;;;;;5020888;28;43564;-75
2023/03/01 07:56:37;;;;;;;3.30;3.20;;;16.60;58.00;;;;;;5023091;28;43897;-73
2023/03/01 07:59:05;;;;;;;3.13;3.03;;;16.70;57.60;;;;;;5024128;28;44868;-75
2023/03/01 08:01:34;;;;;;;3.20;3.10;;;16.70;57.50;;;;;;5024470;28;43427;-75
2023/03/01 08:04:04;;;;;;;3.40;3.30;;;16.70;57.60;;;;;;5021049;28;43958;-73
2023/03/01 08:06:32;;;;;;;3.77;3.67;;;16.60;57.60;;;;;;5023977;28;44796;-77
2023/03/01 08:09:02;;;;;;;3.60;3.50;;;16.70;57.80;;;;;;5021856;28;43420;-76
2023/03/01 08:11:30;;;;;;;3.63;3.53;;;16.60;57.60;;;;;;5021451;28;43433;-76
2023/03/01 08:13:58;;;;;;;3.47;3.37;;;16.60;57.70;;;;;;5025581;28;43484;-76
2023/03/01 08:16:26;;;;;;;3.30;3.20;;;16.60;57.70;;;;;;5017206;28;44083;-75
2023/03/01 08:18:56;;;;;;;3.67;3.57;;;16.60;57.80;;;;;;5020881;28;44185;-75
2023/03/01 08:21:24;;;;;;;3.50;3.40;;;16.60;57.80;;;;;;5013140;28;43863;-73
2023/03/01 08:23:52;;;;;;;3.63;3.43;;;16.60;57.90;;;;;;5021942;28;43962;-74
2023/03/01 08:26:22;;;;;;;3.63;3.53;;;16.60;57.80;;;;;;5016782;28;46038;-74
2023/03/01 08:28:50;;;;;;;3.37;3.27;;;16.60;57.90;;;;;;5019574;28;43491;-75
2023/03/01 08:31:19;;;;;;;3.90;3.80;;;16.60;57.90;;;;;;5016579;28;43997;-77
2023/03/01 08:33:50;;;;;;;3.60;3.50;;;16.60;57.90;;;;;;5024447;28;44050;-74
2023/03/01 08:36:19;;;;;;;3.60;3.50;;;16.50;57.80;;;;;;5017810;28;46006;-75
2023/03/01 08:38:47;;;;;;;3.60;3.50;;;16.50;57.90;;;;;;5023041;28;43455;-75
2023/03/01 08:41:15;;;;;;;3.80;3.60;;;16.50;58.00;;;;;;5018983;28;43759;-74
2023/03/01 08:43:45;;;;;;;3.67;3.57;;;16.50;58.20;;;;;;5018178;28;43447;-73
2023/03/01 08:46:13;;;;;;;3.50;3.40;;;16.60;57.90;;;;;;5017776;28;45633;-75
2023/03/01 08:48:42;;;;;;;3.80;3.70;;;16.60;57.70;;;;;;5020221;28;44647;-76
2023/03/01 08:51:11;;;;;;;4.00;3.80;;;16.70;57.80;;;;;;5023163;28;43444;-76
2023/03/01 08:53:39;;;;;;;3.67;3.57;;;16.60;57.80;;;;;;5023407;28;43538;-75
2023/03/01 08:56:08;;;;;;;3.57;3.47;;;16.60;57.80;;;;;;5020962;28;43839;-75
2023/03/01 08:58:36;;;;;;;3.80;3.70;;;16.60;58.10;;;;;;5019170;28;44977;-75
2023/03/01 09:01:09;;;;;;;3.57;3.47;;;16.60;57.90;;;;;;5017607;28;43471;-73
2023/03/01 09:03:37;;;;;;;3.83;3.73;;;16.60;57.90;;;;;;5021863;28;43479;-76
2023/03/01 09:06:07;;;;;;;4.03;3.93;;;16.60;57.90;;;;;;5021201;28;45809;-74
2023/03/01 09:08:35;;;;;;;3.90;3.73;;;16.60;58.00;;;;;;5023126;28;43449;-76
2023/03/01 09:11:04;;;;;;;3.40;3.30;;;16.60;58.00;;;;;;5025342;28;43445;-76
2023/03/01 09:13:32;;;;;;;3.60;3.50;;;16.50;58.00;;;;;;5023312;28;43546;-77
2023/03/01 09:16:00;;;;;;;3.50;3.40;;;16.50;58.10;;;;;;5018819;28;45568;-75
2023/03/01 09:18:30;;;;;;;3.50;3.40;;;16.50;58.00;;;;;;5018716;28;45846;-74
2023/03/01 09:21:02;;;;;;;3.63;3.43;;;16.50;57.90;;;;;;5020866;28;43376;-74
2023/03/01 09:23:30;;;;;;;3.13;3.10;;;16.60;58.00;;;;;;5018194;28;43647;-74
2023/03/01 09:25:58;;;;;;;3.80;3.70;;;16.60;58.00;;;;;;5022979;28;43719;-74
2023/03/01 09:28:26;;;;;;;3.40;3.30;;;16.50;58.00;;;;;;5020895;28;44648;-75
2023/03/01 09:30:59;;;;;;;3.90;3.80;;;16.50;58.10;;;;;;5023804;28;43853;-76
2023/03/01 09:33:27;;;;;;;3.50;3.40;;;16.50;58.20;;;;;;5024082;28;43463;-75
2023/03/01 09:35:58;;;;;;;3.60;3.50;;;16.60;58.30;;;;;;5021310;28;43993;-73
2023/03/01 09:38:27;;;;;;;3.57;3.47;;;16.70;58.00;;;;;;5015696;28;44627;-73
2023/03/01 09:40:55;;;;;;;3.53;3.43;;;16.80;57.70;;;;;;5014811;28;44039;-75
2023/03/01 09:43:25;;;;;;;3.70;3.60;;;16.80;57.70;;;;;;5015991;28;43514;-75
2023/03/01 09:45:54;;;;;;;3.30;3.20;;;16.70;57.60;;;;;;5021035;28;45760;-75
2023/03/01 09:48:25;;;;;;;3.90;3.80;;;16.70;57.90;;;;;;5024550;28;44166;-75
2023/03/01 09:50:53;;;;;;;3.50;3.40;;;16.70;57.90;;;;;;5020187;28;43449;-76
2023/03/01 09:53:23;;;;;;;3.67;3.57;;;16.70;57.90;;;;;;5025551;28;43941;-75
2023/03/01 09:55:53;;;;;;;3.30;3.27;;;16.70;57.90;;;;;;5018428;28;43898;-75
2023/03/01 09:58:39;;;;;;;3.90;3.80;;;16.60;57.80;;;;;;5013033;28;44120;-75
2023/03/01 10:01:16;;;;;;;3.50;3.40;;;16.60;58.00;;;;;;5017023;28;43484;-73
2023/03/01 10:03:46;;;;;;;3.60;3.50;;;16.60;58.10;;;;;;5022323;28;43560;-76
2023/03/01 10:06:15;;;;;;;3.70;3.60;;;16.60;58.10;;;;;;5024417;28;45030;-75
2023/03/01 10:09:02;;;;;;;3.67;3.57;;;16.60;58.30;;;;;;5020222;28;43952;-75
2023/03/01 10:11:32;;;;;;;3.90;3.80;;;16.60;58.10;;;;;;5020730;28;43416;-74
2023/03/01 10:14:02;;;;;;;3.80;3.70;;;16.60;58.10;;;;;;5013644;28;43456;-74
2023/03/01 10:16:40;;;;;;;3.40;3.30;;;16.60;58.20;;;;;;5022631;28;46058;-74
2023/03/01 10:19:11;;;;;;;3.80;3.70;;;16.60;58.20;;;;;;5019490;28;43976;-76
2023/03/01 10:21:41;;;;;;;3.63;3.53;;;16.60;58.30;;;;;;5021013;28;43416;-76
2023/03/01 10:24:12;;;;;;;3.80;3.70;;;16.60;58.30;;;;;;5014681;28;43908;-76
2023/03/01 10:26:46;;;;;;;3.40;3.30;;;16.70;58.20;;;;;;5021956;28;45682;-75
2023/03/01 10:29:14;;;;;;;3.57;3.47;;;16.70;57.80;;;;;;5019433;28;43342;-74
2023/03/01 10:31:43;;;;;;;3.60;3.50;;;16.70;57.80;;;;;;5020378;28;43501;-76
2023/03/01 10:34:16;;;;;;;3.80;3.70;;;16.70;57.80;;;;;;5020296;28;43787;-76
2023/03/01 10:36:44;;;;;;;3.57;3.47;;;16.70;57.90;;;;;;5021826;28;43958;-73
2023/03/01 10:39:16;;;;;;;3.43;3.33;;;16.70;58.00;;;;;;5023671;28;45206;-74
2023/03/01 10:41:56;;;;;;;3.80;3.70;;;16.70;58.00;;;;;;5023798;28;44382;-74
2023/03/01 10:44:40;;;;;;;3.30;3.20;;;16.70;58.00;;;;;;5017967;28;43396;-74
2023/03/01 10:47:17;;;;;;;3.60;3.50;;;16.70;58.20;;;;;;5018798;28;45627;-74
2023/03/01 10:49:59;;;;;;;3.60;3.50;;;16.70;58.30;;;;;;5022734;28;43462;-74
2023/03/01 10:52:30;;;;;;;3.53;3.43;;;16.70;58.30;;;;;;5023570;28;43510;-74
2023/03/01 10:55:00;;;;;;;3.63;3.53;;;16.60;58.20;;;;;;5028313;28;43349;-75
2023/03/01 10:57:40;;;;;;;3.50;3.40;;;16.70;58.40;;;;;;5022497;28;44010;-75
2023/03/01 11:00:19;;;;;;;3.43;3.33;;;16.60;58.30;;;;;;5027007;28;43915;-76
2023/03/01 11:02:49;;;;;;;3.37;3.27;;;16.70;58.40;;;;;;5024055;28;43396;-74
2023/03/01 11:05:20;;;;;;;3.60;3.50;;;16.70;58.40;;;;;;5023541;28;43544;-75
2023/03/01 11:07:48;;;;;;;3.90;3.80;;;16.70;58.30;;;;;;5021646;28;43858;-75
2023/03/01 11:10:20;;;;;;;3.57;3.47;;;16.70;58.40;;;;;;5023731;28;44248;-74
2023/03/01 11:12:48;;;;;;;3.30;3.20;;;16.70;58.40;;;;;;5023613;28;43862;-75
2023/03/01 11:15:25;;;;;;;3.50;3.40;;;16.70;58.50;;;;;;5023334;28;43480;-75
2023/03/01 11:17:53;;;;;;;3.70;3.60;;;16.70;58.40;;;;;;5025119;28;43761;-74
2023/03/01 11:20:36;;;;;;;3.30;3.20;;;16.70;58.40;;;;;;5027255;28;43473;-75
2023/03/01 11:23:06;;;;;;;3.63;3.53;;;16.70;58.50;;;;;;5020709;28;43449;-76
2023/03/01 11:25:37;;;;;;;3.90;3.80;;;16.70;58.40;;;;;;5020855;28;43548;-75
2023/03/01 11:28:07;;;;;;;3.90;3.80;;;16.70;58.40;;;;;;5025830;28;46477;-75
2023/03/01 11:30:37;;;;;;;3.80;3.70;;;16.70;58.30;;;;;;5019827;28;44662;-74
2023/03/01 11:33:12;;;;;;;3.73;3.63;;;16.80;58.20;;;;;;5020962;28;43392;-74
2023/03/01 11:35:43;;;;;;;3.63;3.53;;;16.90;58.10;;;;;;5022566;28;43481;-77
2023/03/01 11:38:18;;;;;;;3.30;3.20;;;16.90;58.10;;;;;;5019991;28;43895;-75
2023/03/01 11:40:50;;;;;;;3.60;3.50;;;16.90;58.20;;;;;;5026244;28;43421;-74
2023/03/01 11:43:24;;;;;;;3.70;3.60;;;16.80;58.20;;;;;;5019562;28;43413;-74
2023/03/01 11:46:01;;;;;;;3.50;3.40;;;16.80;58.20;;;;;;5022375;28;43416;-75
2023/03/01 11:48:38;;;;;;;3.70;3.60;;;16.80;58.10;;;;;;5016834;28;44370;-75
2023/03/01 11:51:21;;;;;;;3.40;3.30;;;16.80;58.20;;;;;;5020847;28;44350;-75
2023/03/01 11:54:06;;;;;;;3.37;3.27;;;16.80;58.30;;;;;;5024464;28;43377;-74
2023/03/01 11:56:38;;;;;;;3.50;3.40;;;16.80;58.30;;;;;;5024591;28;43340;-76
2023/03/01 11:59:21;;;;;;;3.43;3.33;;;16.80;58.40;;;;;;5024498;28;43978;-75
2023/03/01 12:01:59;;;;;;;3.30;3.20;;;16.80;58.50;;;;;;5024872;28;43428;-74
2023/03/01 12:05:03;;;;;;;3.47;3.37;;;16.80;58.50;;;;;;5018460;28;43982;-74
2023/03/01 12:07:35;;;;;;;3.37;3.27;;;16.80;58.50;;;;;;4980036;28;43420;-74
2023/03/01 12:10:24;;;;;;;3.53;3.43;;;16.80;58.50;;;;;;5014467;28;45789;-75
2023/03/01 12:13:28;;;;;;;3.63;3.53;;;16.80;58.50;;;;;;5022448;28;43467;-75
2023/03/01 12:16:08;;;;;;;3.80;3.70;;;16.80;58.60;;;;;;5017412;28;43438;-76
2023/03/01 12:19:01;;;;;;;3.50;3.40;;;16.80;58.50;;;;;;5018363;28;43600;-74
2023/03/01 12:21:36;;;;;;;3.53;3.43;;;16.80;58.30;;;;;;5009138;28;45442;-74
2023/03/01 12:24:34;;;;;;;3.70;3.60;;;16.80;58.20;;;;;;5022884;28;45068;-73
2023/03/01 12:27:14;;;;;;;3.90;3.80;;;16.90;58.20;;;;;;4989660;28;43425;-75
2023/03/01 12:29:43;;;;;;;3.40;3.30;;;16.90;58.30;;;;;;5019099;28;43548;-75
2023/03/01 12:32:32;;;;;;;3.70;3.60;;;16.80;58.20;;;;;;5018514;28;46008;-75
2023/03/01 12:35:23;;;;;;;3.40;3.30;;;16.80;58.40;;;;;;5021030;28;44624;-74
2023/03/01 12:37:57;;;;;;;3.73;3.63;;;16.80;59.00;;;;;;5025665;28;43447;-76
2023/03/01 12:40:38;;;;;;;3.37;3.27;;;16.80;58.40;;;;;;5024055;28;44206;-74
2023/03/01 12:43:13;;;;;;;3.33;3.23;;;16.80;58.40;;;;;;5023830;28;44028;-76
2023/03/01 12:45:48;;;;;;;3.70;3.60;;;16.80;58.50;;;;;;5023696;28;43419;-74
2023/03/01 12:48:29;;;;;;;3.73;3.63;;;16.80;58.50;;;;;;5015252;28;43511;-74
2023/03/01 12:51:00;;;;;;;3.33;3.23;;;16.80;58.60;;;;;;5021166;28;43551;-77
2023/03/01 12:53:30;;;;;;;3.50;3.40;;;16.80;58.50;;;;;;5019295;28;45219;-75
2023/03/01 12:56:01;;;;;;;3.50;3.40;;;16.80;58.50;;;;;;5021042;28;43462;-76
2023/03/01 12:58:30;;;;;;;3.50;3.40;;;16.80;58.60;;;;;;5014292;28;43389;-77
2023/03/01 13:01:21;;;;;;;3.43;3.33;;;16.80;58.60;;;;;;5022526;28;43476;-75
2023/03/01 13:04:17;;;;;;;3.93;3.83;;;16.80;58.60;;;;;;5018459;28;43853;-74
2023/03/01 13:06:51;;;;;;;3.33;3.23;;;16.80;58.60;;;;;;5019225;28;44832;-74